GLO1802 SBBR-SBRJ
Flight info
| Callsign | GLO1802 |
|---|---|
| Flight time | 1h 22m |
| Altitude | 33000 |
| Route | GEPMO UZ6 TOKIM |
| Aircraft | B38M/M-SDE1FGHILORVWXY/HB1 |
Departure
| Time | 2026-05-01 12:04 |
|---|---|
| Airport | Presidente Juscelino Kubitschek International Airport (SBBR) |
Arrival
| Time | 2026-05-01 13:26 |
|---|---|
| Airport | Santos Dumont Airport (SBRJ) |
| Time | Latitude | Longitude | Altitude | Speed | Heading |
|---|---|---|---|---|---|
| 2026-05-01 11:04 | -15.86711 | -47.91933 | 3467 ft | 0 kts | 176° |
| 2026-05-01 11:50 | -15.86695 | -47.91934 | 3466 ft | 4 kts | 176° |
| 2026-05-01 11:50 | -15.86668 | -47.91936 | 3467 ft | 4 kts | 176° |
| 2026-05-01 11:50 | -15.86644 | -47.91938 | 3467 ft | 4 kts | 171° |
| 2026-05-01 11:50 | -15.86625 | -47.91948 | 3464 ft | 4 kts | 113° |
| 2026-05-01 11:51 | -15.86622 | -47.91973 | 3465 ft | 2 kts | 86° |
| 2026-05-01 11:51 | -15.86622 | -47.91979 | 3465 ft | 0 kts | 86° |
| 2026-05-01 11:53 | -15.86622 | -47.91978 | 3466 ft | 0 kts | 86° |
| 2026-05-01 11:55 | -15.86622 | -47.91971 | 3466 ft | 3 kts | 86° |
| 2026-05-01 11:56 | -15.86619 | -47.91920 | 3466 ft | 11 kts | 86° |
| 2026-05-01 11:56 | -15.86613 | -47.91826 | 3467 ft | 14 kts | 86° |
| 2026-05-01 11:56 | -15.86629 | -47.91729 | 3466 ft | 14 kts | 134° |
| 2026-05-01 11:56 | -15.86721 | -47.91709 | 3467 ft | 14 kts | 178° |
| 2026-05-01 11:57 | -15.86824 | -47.91703 | 3467 ft | 15 kts | 175° |
| 2026-05-01 11:57 | -15.86897 | -47.91697 | 3466 ft | 16 kts | 176° |
| 2026-05-01 11:57 | -15.87048 | -47.91686 | 3466 ft | 17 kts | 175° |
| 2026-05-01 11:57 | -15.87169 | -47.91678 | 3467 ft | 18 kts | 177° |
| 2026-05-01 11:58 | -15.87296 | -47.91669 | 3466 ft | 19 kts | 176° |
| 2026-05-01 11:58 | -15.87429 | -47.91661 | 3466 ft | 19 kts | 177° |
| 2026-05-01 11:58 | -15.87633 | -47.91660 | 3465 ft | 7 kts | 221° |
| 2026-05-01 11:59 | -15.87648 | -47.91703 | 3465 ft | 7 kts | 265° |
| 2026-05-01 11:59 | -15.87653 | -47.91787 | 3465 ft | 17 kts | 266° |
| 2026-05-01 11:59 | -15.87662 | -47.91930 | 3469 ft | 16 kts | 266° |
| 2026-05-01 12:00 | -15.87763 | -47.92082 | 3472 ft | 14 kts | 266° |
| 2026-05-01 12:00 | -15.87770 | -47.92199 | 3475 ft | 20 kts | 266° |
| 2026-05-01 12:00 | -15.87791 | -47.92529 | 3476 ft | 23 kts | 266° |
| 2026-05-01 12:01 | -15.87802 | -47.92697 | 3480 ft | 23 kts | 266° |
| 2026-05-01 12:01 | -15.87813 | -47.92860 | 3484 ft | 23 kts | 266° |
| 2026-05-01 12:01 | -15.87823 | -47.93024 | 3485 ft | 23 kts | 266° |
| 2026-05-01 12:01 | -15.87833 | -47.93182 | 3491 ft | 21 kts | 266° |
| 2026-05-01 12:02 | -15.87842 | -47.93319 | 3498 ft | 18 kts | 266° |
| 2026-05-01 12:02 | -15.87852 | -47.93472 | 3504 ft | 25 kts | 265° |
| 2026-05-01 12:02 | -15.87865 | -47.93672 | 3507 ft | 28 kts | 266° |
| 2026-05-01 12:02 | -15.87877 | -47.93870 | 3514 ft | 27 kts | 266° |
| 2026-05-01 12:03 | -15.87925 | -47.93996 | 3514 ft | 14 kts | 198° |
| 2026-05-01 12:03 | -15.88016 | -47.93992 | 3515 ft | 13 kts | 175° |
| 2026-05-01 12:03 | -15.88064 | -47.93956 | 3513 ft | 9 kts | 89° |
| 2026-05-01 12:03 | -15.88058 | -47.93854 | 3510 ft | 28 kts | 86° |
| 2026-05-01 12:04 | -15.88030 | -47.93413 | 3499 ft | 93 kts | 86° |
| 2026-05-01 12:04 | -15.87973 | -47.92544 | 3481 ft | 146 kts | 86° |
| 2026-05-01 12:04 | -15.87886 | -47.91417 | 3827 ft | 160 kts | 86° |
| 2026-05-01 12:04 | -15.87812 | -47.90228 | 4436 ft | 169 kts | 90° |
| 2026-05-01 12:05 | -15.88132 | -47.89037 | 5038 ft | 179 kts | 120° |
| 2026-05-01 12:05 | -15.90591 | -47.87896 | 5740 ft | 237 kts | 165° |
| 2026-05-01 12:05 | -15.91092 | -47.87805 | 5854 ft | 241 kts | 162° |
| 2026-05-01 12:06 | -15.92751 | -47.87416 | 6414 ft | 256 kts | 162° |
| 2026-05-01 12:06 | -15.94562 | -47.87008 | 6826 ft | 276 kts | 163° |
| 2026-05-01 12:06 | -15.96472 | -47.86592 | 7513 ft | 281 kts | 163° |
| 2026-05-01 12:06 | -15.98398 | -47.86184 | 8295 ft | 286 kts | 163° |
| 2026-05-01 12:07 | -16.00365 | -47.85775 | 8963 ft | 291 kts | 163° |
| 2026-05-01 12:07 | -16.02353 | -47.85366 | 9160 ft | 292 kts | 163° |
| 2026-05-01 12:07 | -16.04348 | -47.84957 | 9696 ft | 291 kts | 163° |
| 2026-05-01 12:07 | -16.06320 | -47.84488 | 10344 ft | 292 kts | 153° |
| 2026-05-01 12:08 | -16.08018 | -47.83368 | 10857 ft | 291 kts | 135° |
| 2026-05-01 12:08 | -16.09604 | -47.81955 | 11080 ft | 310 kts | 135° |
| 2026-05-01 12:08 | -16.10728 | -47.80952 | 11258 ft | 320 kts | 135° |
| 2026-05-01 12:08 | -16.12994 | -47.78910 | 11880 ft | 328 kts | 135° |
| 2026-05-01 12:09 | -16.14156 | -47.77855 | 12286 ft | 330 kts | 136° |
| 2026-05-01 12:09 | -16.15897 | -47.76268 | 12850 ft | 334 kts | 136° |
| 2026-05-01 12:09 | -16.17653 | -47.74665 | 13461 ft | 338 kts | 136° |
| 2026-05-01 12:09 | -16.19403 | -47.73064 | 14038 ft | 341 kts | 136° |
| 2026-05-01 12:10 | -16.21194 | -47.71426 | 14585 ft | 345 kts | 136° |
| 2026-05-01 12:10 | -16.24833 | -47.68096 | 15661 ft | 352 kts | 136° |
| 2026-05-01 12:10 | -16.26682 | -47.66403 | 16183 ft | 356 kts | 136° |
| 2026-05-01 12:11 | -16.30432 | -47.62968 | 17215 ft | 362 kts | 137° |
| 2026-05-01 12:11 | -16.32330 | -47.61229 | 17719 ft | 365 kts | 137° |
| 2026-05-01 12:11 | -16.34242 | -47.59475 | 18221 ft | 368 kts | 137° |
| 2026-05-01 12:12 | -16.36172 | -47.57706 | 18646 ft | 371 kts | 137° |
| 2026-05-01 12:12 | -16.38114 | -47.55925 | 19081 ft | 374 kts | 137° |
| 2026-05-01 12:12 | -16.40072 | -47.54128 | 19503 ft | 376 kts | 137° |
| 2026-05-01 12:12 | -16.42035 | -47.52327 | 19919 ft | 378 kts | 137° |
| 2026-05-01 12:13 | -16.44016 | -47.50509 | 20337 ft | 380 kts | 137° |
| 2026-05-01 12:13 | -16.46009 | -47.48678 | 20755 ft | 383 kts | 137° |
| 2026-05-01 12:13 | -16.48013 | -47.46839 | 21169 ft | 385 kts | 137° |
| 2026-05-01 12:13 | -16.50030 | -47.44986 | 21587 ft | 388 kts | 137° |
| 2026-05-01 12:14 | -16.52060 | -47.43120 | 21999 ft | 390 kts | 137° |
| 2026-05-01 12:14 | -16.54102 | -47.41243 | 22417 ft | 393 kts | 137° |
| 2026-05-01 12:14 | -16.56155 | -47.39355 | 22833 ft | 395 kts | 137° |
| 2026-05-01 12:14 | -16.58224 | -47.37452 | 23254 ft | 398 kts | 136° |
| 2026-05-01 12:15 | -16.60304 | -47.35538 | 23672 ft | 400 kts | 136° |
| 2026-05-01 12:15 | -16.62399 | -47.33610 | 24032 ft | 403 kts | 136° |
| 2026-05-01 12:15 | -16.64505 | -47.31672 | 24397 ft | 405 kts | 136° |
| 2026-05-01 12:15 | -16.66622 | -47.29723 | 24768 ft | 407 kts | 136° |
| 2026-05-01 12:16 | -16.68753 | -47.27760 | 25111 ft | 410 kts | 137° |
| 2026-05-01 12:16 | -16.70895 | -47.25786 | 25468 ft | 412 kts | 137° |
| 2026-05-01 12:16 | -16.73048 | -47.23802 | 25813 ft | 414 kts | 137° |
| 2026-05-01 12:16 | -16.75215 | -47.21803 | 26151 ft | 417 kts | 137° |
| 2026-05-01 12:17 | -16.77395 | -47.19793 | 26485 ft | 420 kts | 137° |
| 2026-05-01 12:17 | -16.79592 | -47.17766 | 26825 ft | 422 kts | 137° |
| 2026-05-01 12:17 | -16.81769 | -47.15757 | 27152 ft | 425 kts | 137° |
| 2026-05-01 12:17 | -16.83991 | -47.13718 | 27486 ft | 427 kts | 139° |
| 2026-05-01 12:18 | -16.86512 | -47.12067 | 27820 ft | 432 kts | 154° |
| 2026-05-01 12:18 | -16.89242 | -47.10732 | 28135 ft | 435 kts | 153° |
| 2026-05-01 12:18 | -16.91982 | -47.09357 | 28430 ft | 438 kts | 153° |
| 2026-05-01 12:18 | -16.94736 | -47.07995 | 28764 ft | 439 kts | 153° |
| 2026-05-01 12:19 | -16.97510 | -47.06633 | 29078 ft | 442 kts | 153° |
| 2026-05-01 12:19 | -17.00301 | -47.05266 | 29372 ft | 445 kts | 154° |
| 2026-05-01 12:19 | -17.03113 | -47.03889 | 29674 ft | 447 kts | 154° |
| 2026-05-01 12:19 | -17.05932 | -47.02508 | 29986 ft | 449 kts | 154° |
| 2026-05-01 12:20 | -17.08771 | -47.01117 | 30268 ft | 452 kts | 154° |
| 2026-05-01 12:20 | -17.11620 | -46.99721 | 30515 ft | 454 kts | 154° |
| 2026-05-01 12:20 | -17.14485 | -46.98316 | 30776 ft | 456 kts | 154° |
| 2026-05-01 12:20 | -17.17366 | -46.96903 | 31026 ft | 458 kts | 154° |
| 2026-05-01 12:21 | -17.20250 | -46.95488 | 31277 ft | 459 kts | 154° |
| 2026-05-01 12:21 | -17.23152 | -46.94064 | 31531 ft | 461 kts | 154° |
| 2026-05-01 12:21 | -17.26059 | -46.92636 | 31782 ft | 463 kts | 154° |
| 2026-05-01 12:21 | -17.28980 | -46.91201 | 32025 ft | 465 kts | 154° |
| 2026-05-01 12:22 | -17.31911 | -46.89761 | 32270 ft | 466 kts | 154° |
| 2026-05-01 12:22 | -17.34851 | -46.88316 | 32507 ft | 468 kts | 155° |
| 2026-05-01 12:22 | -17.37806 | -46.86863 | 32752 ft | 469 kts | 155° |
| 2026-05-01 12:22 | -17.40761 | -46.85410 | 33046 ft | 470 kts | 155° |
| 2026-05-01 12:23 | -17.43717 | -46.83955 | 33155 ft | 470 kts | 155° |
| 2026-05-01 12:23 | -17.46666 | -46.82503 | 33146 ft | 467 kts | 155° |
| 2026-05-01 12:23 | -17.52541 | -46.79610 | 33145 ft | 467 kts | 155° |
| 2026-05-01 12:24 | -17.58420 | -46.76713 | 33144 ft | 467 kts | 155° |
| 2026-05-01 12:24 | -17.64301 | -46.73812 | 33140 ft | 467 kts | 155° |
| 2026-05-01 12:25 | -17.73116 | -46.69461 | 33140 ft | 467 kts | 155° |
| 2026-05-01 12:26 | -17.78992 | -46.66558 | 33141 ft | 467 kts | 155° |
| 2026-05-01 12:26 | -17.87813 | -46.62195 | 33142 ft | 467 kts | 155° |
| 2026-05-01 12:27 | -17.96636 | -46.57828 | 33152 ft | 467 kts | 155° |
| 2026-05-01 12:28 | -18.05455 | -46.53457 | 33153 ft | 467 kts | 155° |
| 2026-05-01 12:29 | -18.14278 | -46.49079 | 33154 ft | 467 kts | 155° |
| 2026-05-01 12:29 | -18.23098 | -46.44697 | 33166 ft | 468 kts | 155° |
| 2026-05-01 12:30 | -18.31882 | -46.40329 | 33168 ft | 468 kts | 155° |
| 2026-05-01 12:31 | -18.37767 | -46.37400 | 33169 ft | 468 kts | 155° |
| 2026-05-01 12:31 | -18.43655 | -46.34467 | 33171 ft | 468 kts | 155° |
| 2026-05-01 12:32 | -18.49545 | -46.31531 | 33173 ft | 468 kts | 155° |
| 2026-05-01 12:32 | -18.58382 | -46.27120 | 33176 ft | 469 kts | 156° |
| 2026-05-01 12:33 | -18.64281 | -46.24173 | 33177 ft | 469 kts | 156° |
| 2026-05-01 12:33 | -18.70186 | -46.21220 | 33179 ft | 470 kts | 156° |
| 2026-05-01 12:34 | -18.76113 | -46.18255 | 33180 ft | 470 kts | 156° |
| 2026-05-01 12:34 | -18.82022 | -46.15296 | 33182 ft | 470 kts | 156° |
| 2026-05-01 12:35 | -18.87897 | -46.12352 | 33181 ft | 471 kts | 156° |
| 2026-05-01 12:35 | -18.93853 | -46.09365 | 33185 ft | 471 kts | 156° |
| 2026-05-01 12:36 | -18.99732 | -46.06412 | 33182 ft | 471 kts | 156° |
| 2026-05-01 12:36 | -19.05651 | -46.03441 | 33184 ft | 472 kts | 156° |
| 2026-05-01 12:37 | -19.11578 | -46.00461 | 33189 ft | 472 kts | 156° |
| 2026-05-01 12:37 | -19.17425 | -45.97325 | 33191 ft | 472 kts | 151° |
| 2026-05-01 12:38 | -19.23153 | -45.93913 | 33189 ft | 473 kts | 152° |
| 2026-05-01 12:38 | -19.28870 | -45.90462 | 33191 ft | 473 kts | 151° |
| 2026-05-01 12:39 | -19.34576 | -45.87005 | 33188 ft | 472 kts | 151° |
| 2026-05-01 12:39 | -19.40280 | -45.83546 | 33188 ft | 472 kts | 151° |
| 2026-05-01 12:40 | -19.45982 | -45.80084 | 33185 ft | 473 kts | 151° |
| 2026-05-01 12:40 | -19.51684 | -45.76587 | 33184 ft | 473 kts | 150° |
| 2026-05-01 12:41 | -19.57321 | -45.72986 | 33183 ft | 473 kts | 150° |
| 2026-05-01 12:41 | -19.62970 | -45.69391 | 33179 ft | 473 kts | 150° |
| 2026-05-01 12:42 | -19.68619 | -45.65792 | 33183 ft | 474 kts | 150° |
| 2026-05-01 12:42 | -19.74271 | -45.62190 | 33182 ft | 474 kts | 150° |
| 2026-05-01 12:43 | -19.79926 | -45.58583 | 33180 ft | 474 kts | 150° |
| 2026-05-01 12:43 | -19.85580 | -45.54973 | 33177 ft | 474 kts | 150° |
| 2026-05-01 12:44 | -19.91237 | -45.51359 | 33182 ft | 474 kts | 150° |
| 2026-05-01 12:45 | -20.02550 | -45.44120 | 33182 ft | 475 kts | 150° |
| 2026-05-01 12:45 | -20.08214 | -45.40492 | 33186 ft | 475 kts | 150° |
| 2026-05-01 12:46 | -20.13817 | -45.36850 | 33182 ft | 475 kts | 150° |
| 2026-05-01 12:46 | -20.19445 | -45.33163 | 33187 ft | 475 kts | 150° |
| 2026-05-01 12:47 | -20.25075 | -45.29475 | 33194 ft | 475 kts | 150° |
| 2026-05-01 12:47 | -20.30705 | -45.25783 | 33192 ft | 475 kts | 150° |
| 2026-05-01 12:48 | -20.36334 | -45.22089 | 33195 ft | 475 kts | 150° |
| 2026-05-01 12:48 | -20.41959 | -45.18394 | 33198 ft | 475 kts | 150° |
| 2026-05-01 12:49 | -20.47594 | -45.14690 | 33196 ft | 475 kts | 150° |
| 2026-05-01 12:49 | -20.53220 | -45.10989 | 33201 ft | 476 kts | 150° |
| 2026-05-01 12:50 | -20.58850 | -45.07280 | 33195 ft | 475 kts | 150° |
| 2026-05-01 12:50 | -20.64476 | -45.03572 | 33202 ft | 475 kts | 150° |
| 2026-05-01 12:51 | -20.70106 | -44.99858 | 33204 ft | 475 kts | 150° |
| 2026-05-01 12:52 | -20.78556 | -44.94311 | 33204 ft | 475 kts | 150° |
| 2026-05-01 12:52 | -20.87020 | -44.88765 | 33206 ft | 476 kts | 150° |
| 2026-05-01 12:53 | -20.95479 | -44.83216 | 33204 ft | 476 kts | 150° |
| 2026-05-01 12:54 | -21.01079 | -44.79538 | 33208 ft | 476 kts | 150° |
| 2026-05-01 12:54 | -21.09576 | -44.74056 | 33209 ft | 475 kts | 151° |
| 2026-05-01 12:55 | -21.18095 | -44.68604 | 33206 ft | 475 kts | 151° |
| 2026-05-01 12:56 | -21.23743 | -44.64909 | 33210 ft | 476 kts | 150° |
| 2026-05-01 12:56 | -21.28468 | -44.61779 | 33208 ft | 476 kts | 151° |
| 2026-05-01 12:57 | -21.34110 | -44.58046 | 33207 ft | 476 kts | 151° |
| 2026-05-01 12:57 | -21.39683 | -44.54357 | 32723 ft | 468 kts | 151° |
| 2026-05-01 12:57 | -21.42426 | -44.52540 | 32317 ft | 461 kts | 151° |
| 2026-05-01 12:58 | -21.45153 | -44.50733 | 31811 ft | 458 kts | 150° |
| 2026-05-01 12:58 | -21.47853 | -44.48944 | 31262 ft | 456 kts | 150° |
| 2026-05-01 12:58 | -21.50553 | -44.47153 | 30714 ft | 455 kts | 150° |
| 2026-05-01 12:59 | -21.55914 | -44.43596 | 29573 ft | 451 kts | 150° |
| 2026-05-01 12:59 | -21.58576 | -44.41829 | 29032 ft | 448 kts | 150° |
| 2026-05-01 12:59 | -21.63840 | -44.38330 | 28014 ft | 442 kts | 150° |
| 2026-05-01 13:00 | -21.69037 | -44.34874 | 26999 ft | 437 kts | 150° |
| 2026-05-01 13:00 | -21.71611 | -44.33161 | 26510 ft | 434 kts | 150° |
| 2026-05-01 13:01 | -21.76722 | -44.29758 | 25531 ft | 430 kts | 150° |
| 2026-05-01 13:01 | -21.79262 | -44.28065 | 25039 ft | 428 kts | 150° |
| 2026-05-01 13:01 | -21.84307 | -44.24701 | 24093 ft | 425 kts | 150° |
| 2026-05-01 13:02 | -21.86816 | -44.23027 | 23660 ft | 422 kts | 150° |
| 2026-05-01 13:07 | -22.35025 | -44.00034 | 14911 ft | 332 kts | 158° |
| 2026-05-01 13:07 | -22.37148 | -43.99071 | 14511 ft | 329 kts | 158° |
| 2026-05-01 13:07 | -22.39246 | -43.98120 | 14106 ft | 326 kts | 158° |
| 2026-05-01 13:08 | -22.41332 | -43.97175 | 13672 ft | 324 kts | 158° |
| 2026-05-01 13:08 | -22.43399 | -43.96236 | 13247 ft | 320 kts | 158° |
| 2026-05-01 13:08 | -22.45446 | -43.95307 | 12807 ft | 318 kts | 158° |
| 2026-05-01 13:08 | -22.47471 | -43.94387 | 12425 ft | 314 kts | 157° |
| 2026-05-01 13:09 | -22.49470 | -43.93479 | 12060 ft | 309 kts | 157° |
| 2026-05-01 13:09 | -22.51437 | -43.92586 | 11693 ft | 305 kts | 157° |
| 2026-05-01 13:09 | -22.53395 | -43.91696 | 11322 ft | 305 kts | 156° |
| 2026-05-01 13:09 | -22.55353 | -43.90806 | 10971 ft | 305 kts | 156° |
| 2026-05-01 13:10 | -22.57276 | -43.89932 | 10905 ft | 293 kts | 156° |
| 2026-05-01 13:10 | -22.59121 | -43.89093 | 10846 ft | 282 kts | 156° |
| 2026-05-01 13:10 | -22.60940 | -43.88265 | 10636 ft | 289 kts | 156° |
| 2026-05-01 13:10 | -22.62807 | -43.87415 | 10428 ft | 292 kts | 156° |
| 2026-05-01 13:11 | -22.64664 | -43.86570 | 10317 ft | 287 kts | 156° |
| 2026-05-01 13:11 | -22.66507 | -43.85731 | 10060 ft | 288 kts | 156° |
| 2026-05-01 13:11 | -22.68350 | -43.84888 | 9763 ft | 289 kts | 155° |
| 2026-05-01 13:11 | -22.70222 | -43.84038 | 9414 ft | 293 kts | 156° |
| 2026-05-01 13:12 | -22.72109 | -43.83177 | 9045 ft | 294 kts | 156° |
| 2026-05-01 13:12 | -22.73988 | -43.82322 | 8770 ft | 292 kts | 156° |
| 2026-05-01 13:12 | -22.75838 | -43.81488 | 8817 ft | 280 kts | 156° |
| 2026-05-01 13:12 | -22.77648 | -43.80657 | 8417 ft | 288 kts | 156° |
| 2026-05-01 13:13 | -22.79530 | -43.79794 | 7834 ft | 297 kts | 156° |
| 2026-05-01 13:13 | -22.81433 | -43.78925 | 7508 ft | 296 kts | 156° |
| 2026-05-01 13:13 | -22.83318 | -43.78064 | 7227 ft | 293 kts | 156° |
| 2026-05-01 13:13 | -22.85172 | -43.77217 | 7115 ft | 283 kts | 156° |
| 2026-05-01 13:14 | -22.86950 | -43.76404 | 7084 ft | 273 kts | 156° |
| 2026-05-01 13:14 | -22.88689 | -43.75609 | 7065 ft | 271 kts | 156° |
| 2026-05-01 13:14 | -22.90424 | -43.74829 | 7143 ft | 268 kts | 157° |
| 2026-05-01 13:14 | -22.92172 | -43.74039 | 7014 ft | 272 kts | 155° |
| 2026-05-01 13:15 | -22.93890 | -43.73213 | 7005 ft | 270 kts | 149° |
| 2026-05-01 13:15 | -22.95248 | -43.71869 | 7025 ft | 265 kts | 122° |
| 2026-05-01 13:15 | -22.96173 | -43.70134 | 7009 ft | 266 kts | 118° |
| 2026-05-01 13:15 | -22.97067 | -43.68376 | 7009 ft | 267 kts | 117° |
| 2026-05-01 13:16 | -22.97959 | -43.66603 | 7048 ft | 268 kts | 117° |
| 2026-05-01 13:16 | -22.98840 | -43.64828 | 6991 ft | 265 kts | 116° |
| 2026-05-01 13:16 | -22.99367 | -43.63177 | 6891 ft | 255 kts | 95° |
| 2026-05-01 13:17 | -22.97903 | -43.58102 | 6627 ft | 229 kts | 66° |
| 2026-05-01 13:17 | -22.97255 | -43.56554 | 6471 ft | 220 kts | 65° |
| 2026-05-01 13:18 | -22.96017 | -43.53661 | 6229 ft | 209 kts | 65° |
| 2026-05-01 13:18 | -22.95398 | -43.52234 | 6106 ft | 209 kts | 65° |
| 2026-05-01 13:18 | -22.94798 | -43.50852 | 6065 ft | 198 kts | 65° |
| 2026-05-01 13:18 | -22.94230 | -43.49502 | 5865 ft | 196 kts | 65° |
| 2026-05-01 13:19 | -22.93669 | -43.48172 | 5554 ft | 190 kts | 65° |
| 2026-05-01 13:19 | -22.93122 | -43.46876 | 5352 ft | 190 kts | 65° |
| 2026-05-01 13:19 | -22.92013 | -43.44263 | 5022 ft | 191 kts | 65° |
| 2026-05-01 13:20 | -22.91460 | -43.42956 | 4840 ft | 191 kts | 65° |
| 2026-05-01 13:20 | -22.90913 | -43.41667 | 4605 ft | 190 kts | 65° |
| 2026-05-01 13:20 | -22.90362 | -43.40370 | 4345 ft | 189 kts | 65° |
| 2026-05-01 13:21 | -22.89286 | -43.37834 | 3896 ft | 180 kts | 65° |
| 2026-05-01 13:21 | -22.88768 | -43.36612 | 3709 ft | 177 kts | 66° |
| 2026-05-01 13:21 | -22.88267 | -43.35394 | 3495 ft | 177 kts | 69° |
| 2026-05-01 13:21 | -22.87863 | -43.34139 | 3294 ft | 176 kts | 71° |
| 2026-05-01 13:22 | -22.87466 | -43.32893 | 3063 ft | 171 kts | 71° |
| 2026-05-01 13:22 | -22.87083 | -43.31696 | 2877 ft | 165 kts | 71° |
| 2026-05-01 13:22 | -22.86707 | -43.30527 | 2732 ft | 164 kts | 71° |
| 2026-05-01 13:22 | -22.86328 | -43.29370 | 2538 ft | 163 kts | 71° |
| 2026-05-01 13:23 | -22.85951 | -43.28223 | 2330 ft | 159 kts | 71° |
| 2026-05-01 13:23 | -22.85603 | -43.27098 | 2138 ft | 158 kts | 77° |
| 2026-05-01 13:23 | -22.85606 | -43.25911 | 1951 ft | 157 kts | 94° |
| 2026-05-01 13:23 | -22.85712 | -43.24747 | 1674 ft | 155 kts | 97° |
| 2026-05-01 13:24 | -22.85851 | -43.23594 | 1360 ft | 151 kts | 97° |
| 2026-05-01 13:24 | -22.86005 | -43.22481 | 974 ft | 146 kts | 99° |
| 2026-05-01 13:24 | -22.86168 | -43.21417 | 754 ft | 143 kts | 99° |
| 2026-05-01 13:25 | -22.86488 | -43.19276 | 662 ft | 145 kts | 100° |
| 2026-05-01 13:25 | -22.86709 | -43.18214 | 613 ft | 144 kts | 109° |
| 2026-05-01 13:25 | -22.87136 | -43.17234 | 552 ft | 144 kts | 123° |
| 2026-05-01 13:25 | -22.87826 | -43.16461 | 480 ft | 144 kts | 150° |
| 2026-05-01 13:26 | -22.88779 | -43.16335 | 320 ft | 141 kts | 191° |
| 2026-05-01 13:26 | -22.89766 | -43.16366 | 156 ft | 141 kts | 174° |
| 2026-05-01 13:26 | -22.90736 | -43.16304 | 30 ft | 135 kts | 176° |
| 2026-05-01 13:26 | -22.91407 | -43.16260 | 26 ft | 44 kts | 176° |
| 2026-05-01 13:27 | -22.91569 | -43.16249 | 25 ft | 11 kts | 184° |
| 2026-05-01 13:27 | -22.91599 | -43.16293 | 23 ft | 7 kts | 290° |
| 2026-05-01 13:27 | -22.91510 | -43.16394 | 24 ft | 11 kts | 316° |
| 2026-05-01 13:28 | -22.91400 | -43.16498 | 24 ft | 9 kts | 338° |
| 2026-05-01 13:28 | -22.91333 | -43.16505 | 27 ft | 11 kts | 356° |
| 2026-05-01 13:29 | -22.91176 | -43.16516 | 26 ft | 5 kts | 347° |
| 2026-05-01 13:29 | -22.91168 | -43.16567 | 26 ft | 6 kts | 266° |
| 2026-05-01 13:30 | -22.91169 | -43.16583 | 28 ft | 0 kts | 266° |